createdAt,value
2019-03-11T00:00:34.520Z,7.00
2019-03-11T00:03:05.530Z,7.00
2019-03-11T00:05:36.359Z,13.00
2019-03-11T00:08:07.144Z,10.00
2019-03-11T00:10:38.157Z,10.80
2019-03-11T00:13:09.025Z,10.40
2019-03-11T00:15:39.721Z,15.40
2019-03-11T00:18:10.581Z,17.00
2019-03-11T00:20:42.433Z,14.20
2019-03-11T00:23:13.279Z,15.50
2019-03-11T00:25:44.101Z,12.00
2019-03-11T00:28:14.868Z,15.00
2019-03-11T00:30:45.521Z,15.00
2019-03-11T00:33:16.375Z,11.00
2019-03-11T00:35:47.106Z,16.00
2019-03-11T00:38:17.907Z,15.80
2019-03-11T00:40:48.703Z,14.20
2019-03-11T00:43:20.103Z,13.80
2019-03-11T01:01:17.103Z,20.20
2019-03-11T01:03:51.569Z,15.00
2019-03-11T01:06:22.308Z,13.00
2019-03-11T01:08:53.527Z,14.60
2019-03-11T01:11:24.712Z,14.00
2019-03-11T01:13:55.516Z,14.00
2019-03-11T01:16:26.265Z,12.60
2019-03-11T01:18:56.962Z,13.00
2019-03-11T01:21:27.875Z,13.00
2019-03-11T01:23:58.540Z,13.60
2019-03-11T01:26:29.394Z,14.00
2019-03-11T01:29:03.380Z,16.80
2019-03-11T01:46:38.209Z,15.60
2019-03-11T01:49:09.031Z,16.00
2019-03-11T01:51:42.687Z,16.00
2019-03-11T01:54:13.488Z,13.00
2019-03-11T01:56:44.046Z,15.00
2019-03-11T01:59:15.191Z,15.60
2019-03-11T02:01:48.377Z,16.00
2019-03-11T02:04:18.254Z,12.50
2019-03-11T02:06:49.059Z,15.00
2019-03-11T02:09:21.354Z,14.20
2019-03-11T02:11:52.160Z,16.00
2019-03-11T02:14:23.014Z,18.75
2019-03-11T02:16:54.634Z,13.00
2019-03-11T02:19:25.412Z,13.00
2019-03-11T02:21:56.194Z,15.00
2019-03-11T02:24:27.071Z,15.60
2019-03-11T02:30:58.388Z,16.00
2019-03-11T02:33:29.192Z,14.60
2019-03-11T02:36:01.008Z,14.20
2019-03-11T02:38:31.788Z,13.00
2019-03-11T02:41:03.385Z,15.00
2019-03-11T02:43:35.898Z,12.50
2019-03-11T02:46:06.600Z,15.20
2019-03-11T02:48:37.920Z,13.00
2019-03-11T02:51:12.341Z,15.00
2019-03-11T02:57:32.016Z,11.00
2019-03-11T03:00:02.830Z,13.00
2019-03-11T03:02:47.243Z,11.00
2019-03-11T03:05:40.439Z,7.60
2019-03-11T03:08:11.549Z,11.40
2019-03-11T03:10:42.378Z,12.25
2019-03-11T03:13:17.816Z,16.00
2019-03-11T03:26:50.815Z,10.00
2019-03-11T03:29:21.722Z,8.80
2019-03-11T03:31:52.546Z,7.00
2019-03-11T03:34:23.437Z,8.00
2019-03-11T03:36:55.336Z,6.80
2019-03-11T03:39:26.289Z,6.00
2019-03-11T03:41:57.049Z,10.00
2019-03-11T03:44:29.088Z,7.20
2019-03-11T03:46:59.940Z,6.50
2019-03-11T03:49:30.813Z,7.00
2019-03-11T03:52:01.870Z,7.00
2019-03-11T03:54:32.774Z,7.40
2019-03-11T03:57:03.630Z,7.00
2019-03-11T03:59:35.540Z,4.20
2019-03-11T04:02:06.421Z,5.00
2019-03-11T04:04:37.146Z,5.50
2019-03-11T04:07:07.996Z,3.80
2019-03-11T04:09:38.856Z,2.40
2019-03-11T04:12:09.854Z,3.00
2019-03-11T04:14:40.721Z,3.00
2019-03-11T04:17:13.260Z,2.00
2019-03-11T04:19:44.337Z,3.00
2019-03-11T04:22:15.310Z,3.00
2019-03-11T04:24:46.237Z,3.50
2019-03-11T04:27:17.216Z,5.00
2019-03-11T04:29:48.098Z,4.20
2019-03-11T04:32:19.172Z,5.00
2019-03-11T04:34:50.172Z,5.40
2019-03-11T04:37:21.251Z,4.20
2019-03-11T04:39:52.265Z,5.00
2019-03-11T04:42:23.324Z,3.00
2019-03-11T04:44:55.421Z,3.00
2019-03-11T04:47:26.428Z,4.20
2019-03-11T04:50:00.051Z,5.00
2019-03-11T04:52:30.044Z,7.00
2019-03-11T04:55:00.953Z,5.40
2019-03-11T04:57:40.118Z,6.00
2019-03-11T05:00:12.233Z,5.00
2019-03-11T05:02:44.845Z,6.20
2019-03-11T05:05:15.759Z,6.00
2019-03-11T05:07:46.837Z,6.00
2019-03-11T05:10:17.631Z,7.00
2019-03-11T05:12:48.522Z,5.40
2019-03-11T05:15:19.413Z,5.00
2019-03-11T05:17:50.265Z,5.00
2019-03-11T05:20:21.180Z,5.00
2019-03-11T05:22:54.592Z,5.00
2019-03-11T05:25:24.719Z,6.00
2019-03-11T05:27:55.457Z,5.40
2019-03-11T05:30:26.257Z,6.00
2019-03-11T05:32:57.064Z,7.00
2019-03-11T05:35:28.107Z,6.00
2019-03-11T05:38:00.634Z,5.00
2019-03-11T05:40:31.440Z,5.00
2019-03-11T05:43:02.416Z,7.00
2019-03-11T05:45:33.394Z,6.00
2019-03-11T05:48:04.313Z,8.50
2019-03-11T05:50:35.217Z,6.00
2019-03-11T05:53:06.176Z,7.00
2019-03-11T05:55:37.068Z,8.00
2019-03-11T05:58:07.948Z,6.40
2019-03-11T06:00:38.684Z,10.50
2019-03-11T06:03:09.630Z,10.00
2019-03-11T06:05:40.351Z,11.80
2019-03-11T06:08:22.737Z,12.00
2019-03-11T06:10:53.507Z,12.00
2019-03-11T06:13:35.283Z,11.80
2019-03-11T06:15:56.779Z,12.00
2019-03-11T06:18:58.848Z,14.00
2019-03-11T06:21:37.671Z,11.00
2019-03-11T06:24:08.460Z,13.20
2019-03-11T06:26:39.204Z,16.60
2019-03-11T06:29:09.800Z,11.80
2019-03-11T06:31:40.600Z,11.60
2019-03-11T06:34:11.339Z,15.00
2019-03-11T06:36:42.138Z,19.40
2019-03-11T06:39:12.826Z,15.50
2019-03-11T06:41:43.604Z,15.75
2019-03-11T06:44:14.311Z,17.80
2019-03-11T06:46:46.166Z,12.80
2019-03-11T06:49:16.987Z,14.60
2019-03-11T06:51:47.805Z,14.80
2019-03-11T06:54:18.551Z,16.00
2019-03-11T06:56:49.481Z,17.60
2019-03-11T06:59:20.330Z,15.60
2019-03-11T07:01:51.148Z,16.00
2019-03-11T07:04:21.901Z,16.20
2019-03-11T07:06:52.731Z,13.00
2019-03-11T07:09:23.557Z,15.60
2019-03-11T07:11:54.429Z,59.00
2019-03-11T07:14:25.283Z,34.40
2019-03-11T07:16:55.982Z,13.00
2019-03-11T07:19:26.737Z,30.60
2019-03-11T07:21:57.626Z,19.20
2019-03-11T07:24:28.419Z,13.40
2019-03-11T07:26:59.213Z,17.75
2019-03-11T07:29:30.008Z,18.00
2019-03-11T07:32:00.780Z,23.20
2019-03-11T07:34:31.587Z,15.00
2019-03-11T07:37:02.185Z,19.60
2019-03-11T07:39:33.051Z,19.00
2019-03-11T07:42:03.728Z,17.00
2019-03-11T07:44:34.477Z,18.00
2019-03-11T07:47:05.160Z,17.60
2019-03-11T07:49:35.988Z,25.20
2019-03-11T07:52:06.843Z,15.60
2019-03-11T07:54:37.731Z,17.40
2019-03-11T07:57:10.970Z,21.00
2019-03-11T07:59:42.068Z,22.20
2019-03-11T08:02:12.628Z,18.00
2019-03-11T08:04:43.455Z,17.00
2019-03-11T08:07:14.136Z,26.40
2019-03-11T08:09:44.930Z,25.40
2019-03-11T08:12:15.715Z,19.40
2019-03-11T08:14:46.348Z,18.40
2019-03-11T08:17:17.184Z,25.75
2019-03-11T08:19:48.040Z,23.20
2019-03-11T08:22:18.854Z,21.40
2019-03-11T08:24:49.713Z,21.40
2019-03-11T08:27:20.473Z,20.20
2019-03-11T08:29:51.283Z,18.60
2019-03-11T08:32:21.841Z,18.00
2019-03-11T08:34:52.662Z,19.40
2019-03-11T08:37:23.320Z,23.00
2019-03-11T08:39:54.008Z,22.80
2019-03-11T08:42:24.799Z,26.00
2019-03-11T08:44:55.584Z,21.80
2019-03-11T08:47:26.441Z,21.00
2019-03-11T08:49:57.357Z,21.50
2019-03-11T08:52:28.130Z,23.20
2019-03-11T08:54:58.944Z,23.60
2019-03-11T08:57:29.610Z,21.40
2019-03-11T09:00:00.474Z,22.00
2019-03-11T09:02:31.171Z,23.20
2019-03-11T09:05:02.076Z,17.60
2019-03-11T09:07:32.940Z,16.00
2019-03-11T09:10:03.755Z,19.00
2019-03-11T09:12:34.529Z,19.50
2019-03-11T09:15:05.731Z,17.50
2019-03-11T09:17:36.490Z,18.00
2019-03-11T09:20:07.365Z,16.00
2019-03-11T09:22:38.363Z,16.00
2019-03-11T09:25:11.171Z,14.00
2019-03-11T09:27:41.904Z,16.75
2019-03-11T09:30:15.191Z,13.00
2019-03-11T09:32:46.424Z,13.60
2019-03-11T09:35:17.204Z,17.20
2019-03-11T09:37:47.868Z,11.00
2019-03-11T09:40:18.556Z,11.20
2019-03-11T09:42:49.343Z,11.20
2019-03-11T09:45:20.022Z,11.40
2019-03-11T09:47:50.897Z,9.00
2019-03-11T09:50:21.723Z,12.60
2019-03-11T09:52:52.380Z,16.00
2019-03-11T09:55:23.336Z,8.40
2019-03-11T09:57:54.288Z,9.80
2019-03-11T10:00:26.814Z,9.80
2019-03-11T10:02:57.595Z,10.00
2019-03-11T10:05:28.504Z,9.75
2019-03-11T10:07:59.349Z,10.40
2019-03-11T10:10:30.399Z,7.40
2019-03-11T10:13:01.082Z,8.00
2019-03-11T10:15:32.066Z,4.00
2019-03-11T10:18:02.945Z,6.00
2019-03-11T10:20:34.030Z,4.00
2019-03-11T10:23:05.000Z,8.00
2019-03-11T10:25:36.021Z,8.00
2019-03-11T10:28:07.014Z,6.50
2019-03-11T10:30:37.988Z,7.00
2019-03-11T10:33:08.715Z,11.40
2019-03-11T10:35:39.401Z,16.20
2019-03-11T10:38:10.369Z,7.50
2019-03-11T10:40:41.216Z,8.00
2019-03-11T10:43:12.163Z,9.80
2019-03-11T10:45:43.041Z,22.00
2019-03-11T10:48:13.751Z,11.00
2019-03-11T10:50:44.792Z,7.40
2019-03-11T10:53:15.704Z,8.00
2019-03-11T10:55:46.474Z,13.00
2019-03-11T10:58:17.461Z,8.00
2019-03-11T11:00:48.454Z,6.20
2019-03-11T11:03:19.449Z,9.00
2019-03-11T11:05:50.410Z,8.80
2019-03-11T11:08:21.296Z,6.00
2019-03-11T11:10:52.011Z,10.60
2019-03-11T11:13:23.068Z,4.00
2019-03-11T11:15:53.969Z,6.60
2019-03-11T11:18:24.760Z,8.40
2019-03-11T11:20:55.383Z,16.00
2019-03-11T11:23:26.349Z,7.00
2019-03-11T11:25:57.320Z,7.00
2019-03-11T11:28:28.296Z,7.00
2019-03-11T11:30:59.309Z,7.00
2019-03-11T11:33:30.176Z,6.00
2019-03-11T11:36:01.049Z,5.40
2019-03-11T11:38:31.971Z,5.25
2019-03-11T11:41:02.820Z,8.00
2019-03-11T11:43:33.610Z,7.00
2019-03-11T11:46:04.618Z,6.40
2019-03-11T11:48:35.880Z,7.00
2019-03-11T11:51:06.853Z,4.20
2019-03-11T11:53:39.113Z,6.80
2019-03-11T11:56:09.990Z,5.00
2019-03-11T11:58:41.020Z,6.00
2019-03-11T12:01:13.771Z,5.00
2019-03-11T12:03:44.819Z,5.40
2019-03-11T12:06:16.915Z,2.80
2019-03-11T12:08:47.907Z,3.40
2019-03-11T12:11:18.684Z,3.20
2019-03-11T12:13:49.658Z,4.60
2019-03-11T12:16:20.533Z,2.20
2019-03-11T12:18:51.522Z,2.20
2019-03-11T12:21:23.436Z,6.80
2019-03-11T12:23:54.368Z,4.20
2019-03-11T12:26:25.444Z,5.00
2019-03-11T12:28:56.329Z,4.20
2019-03-11T12:31:27.235Z,2.50
2019-03-11T12:33:59.221Z,2.00
2019-03-11T12:36:30.125Z,5.00
2019-03-11T12:39:02.593Z,3.00
2019-03-11T12:41:35.077Z,5.00
2019-03-11T12:44:05.945Z,6.50
2019-03-11T12:46:37.050Z,3.00
2019-03-11T12:49:07.936Z,4.00
2019-03-11T12:51:48.928Z,2.40
2019-03-11T12:54:11.144Z,5.00
2019-03-11T12:56:41.910Z,2.75
2019-03-11T12:59:12.729Z,2.60
2019-03-11T13:01:43.715Z,5.00
2019-03-11T13:04:14.565Z,2.60
2019-03-11T13:06:46.497Z,5.00
2019-03-11T13:09:17.449Z,3.00
2019-03-11T13:11:48.432Z,5.00
2019-03-11T13:14:19.328Z,3.00
2019-03-11T13:16:50.348Z,3.00
2019-03-11T13:19:21.224Z,3.00
2019-03-11T13:21:52.412Z,3.00
2019-03-11T13:24:23.472Z,3.00
2019-03-11T13:26:54.493Z,3.00
2019-03-11T13:29:25.417Z,2.00
2019-03-11T13:31:56.297Z,5.50
2019-03-11T13:34:27.364Z,3.00
2019-03-11T13:36:58.174Z,5.00
2019-03-11T13:39:29.120Z,3.00
2019-03-11T13:42:00.121Z,3.80
2019-03-11T13:44:31.221Z,5.00
2019-03-11T13:47:02.210Z,2.00
2019-03-11T13:49:33.204Z,4.40
2019-03-11T13:52:04.213Z,3.00
2019-03-11T13:54:36.077Z,5.40
2019-03-11T13:57:06.984Z,5.80
2019-03-11T13:59:38.152Z,3.00
2019-03-11T14:02:09.092Z,3.00
2019-03-11T14:04:41.675Z,2.00
2019-03-11T14:07:12.778Z,3.00
2019-03-11T14:09:43.555Z,5.00
2019-03-11T14:12:14.485Z,3.00
2019-03-11T14:14:45.357Z,3.00
2019-03-11T14:17:16.247Z,5.00
2019-03-11T14:19:47.340Z,3.80
2019-03-11T14:22:18.201Z,3.00
2019-03-11T14:24:49.962Z,3.00
2019-03-11T14:27:20.949Z,3.00
2019-03-11T14:29:51.811Z,5.40
2019-03-11T14:32:23.170Z,4.60
2019-03-11T14:34:55.417Z,6.00
2019-03-11T14:37:27.989Z,5.60
2019-03-11T14:39:59.925Z,5.00
2019-03-11T14:42:30.960Z,6.00
2019-03-11T14:45:02.825Z,6.00
2019-03-11T14:47:35.280Z,5.00
2019-03-11T14:50:06.389Z,6.00
2019-03-11T14:52:37.743Z,4.00
2019-03-11T14:55:08.747Z,6.80
2019-03-11T14:57:39.667Z,3.00
2019-03-11T15:00:12.952Z,6.00
2019-03-11T15:02:44.024Z,6.00
2019-03-11T15:05:16.296Z,7.00
2019-03-11T15:07:47.269Z,4.40
2019-03-11T15:10:18.157Z,4.00
2019-03-11T15:12:50.048Z,6.00
2019-03-11T15:15:20.836Z,4.00
2019-03-11T15:17:51.874Z,3.00
2019-03-11T15:20:22.828Z,6.00
2019-03-11T15:22:53.873Z,3.00
2019-03-11T15:25:24.609Z,5.00
2019-03-11T15:27:55.522Z,4.00
2019-03-11T15:30:26.199Z,6.00
2019-03-11T15:32:57.295Z,7.00
2019-03-11T15:35:28.292Z,6.00
2019-03-11T15:37:59.288Z,6.00
2019-03-11T15:40:30.133Z,4.00
2019-03-11T15:43:01.252Z,5.20
2019-03-11T15:45:38.722Z,6.00
2019-03-11T15:48:04.904Z,2.20
2019-03-11T15:50:35.869Z,6.80
2019-03-11T15:53:07.853Z,7.00
2019-03-11T15:55:38.744Z,3.00
2019-03-11T15:58:10.759Z,6.00
2019-03-11T16:00:41.636Z,3.00
2019-03-11T16:03:12.537Z,4.00
2019-03-11T16:05:43.420Z,4.00
2019-03-11T16:08:14.395Z,4.80
2019-03-11T16:10:45.520Z,3.00
2019-03-11T16:13:16.502Z,4.00
2019-03-11T16:15:47.362Z,4.00
2019-03-11T16:18:19.178Z,3.00
2019-03-11T16:20:50.088Z,6.20
2019-03-11T16:23:21.052Z,5.60
2019-03-11T16:25:51.832Z,4.00
2019-03-11T16:28:22.845Z,7.20
2019-03-11T16:30:53.840Z,3.00
2019-03-11T16:33:24.003Z,3.00
2019-03-11T16:35:54.199Z,5.00
2019-03-11T16:38:25.052Z,3.75
2019-03-11T16:40:56.024Z,4.00
2019-03-11T16:43:27.113Z,8.75
2019-03-11T16:45:58.105Z,4.00
2019-03-11T16:48:28.984Z,4.00
2019-03-11T16:50:59.761Z,4.80
2019-03-11T16:53:30.959Z,6.00
2019-03-11T16:56:02.787Z,6.40
2019-03-11T16:58:33.896Z,6.00
2019-03-11T17:01:07.324Z,3.00
2019-03-11T17:03:38.215Z,4.80
2019-03-11T17:06:09.104Z,3.00
2019-03-11T17:08:40.135Z,4.00
2019-03-11T17:11:11.397Z,6.00
2019-03-11T17:13:42.190Z,4.00
2019-03-11T17:16:13.921Z,4.00
2019-03-11T17:18:44.993Z,3.60
2019-03-11T17:21:16.893Z,6.60
2019-03-11T17:23:50.138Z,6.00
2019-03-11T17:26:22.604Z,3.00
2019-03-11T17:28:54.780Z,2.00
2019-03-11T17:31:25.755Z,2.00
2019-03-11T17:33:56.557Z,2.80
2019-03-11T17:36:27.591Z,2.00
2019-03-11T17:38:58.608Z,1.20
2019-03-11T17:41:29.673Z,2.00
2019-03-11T17:44:00.605Z,2.00
2019-03-11T17:46:31.680Z,2.00
2019-03-11T17:49:02.716Z,0.80
2019-03-11T17:51:33.731Z,1.00
2019-03-11T17:54:04.757Z,2.00
2019-03-11T17:56:35.640Z,1.00
2019-03-11T17:59:08.096Z,1.20
2019-03-11T18:01:40.072Z,2.00
2019-03-11T18:04:12.253Z,1.00
2019-03-11T18:06:44.620Z,3.00
2019-03-11T18:09:15.700Z,2.40
2019-03-11T18:11:46.788Z,3.00
2019-03-11T18:44:03.334Z,3.00
2019-03-11T18:46:37.558Z,2.00
2019-03-11T18:49:12.009Z,5.00
2019-03-11T18:51:43.963Z,5.00
2019-03-11T18:54:14.874Z,5.00
2019-03-11T18:56:46.804Z,3.00
2019-03-11T18:59:17.716Z,3.00
2019-03-11T19:01:48.711Z,2.00
2019-03-11T19:04:21.613Z,1.00
2019-03-11T19:06:54.881Z,3.00
2019-03-11T19:09:27.596Z,2.80
2019-03-11T19:12:00.500Z,5.00
2019-03-11T19:14:33.865Z,3.00
2019-03-11T19:17:09.471Z,5.00
2019-03-11T19:19:46.482Z,1.00
2019-03-11T19:22:15.981Z,3.80
2019-03-11T19:24:47.798Z,2.00
2019-03-11T19:27:19.587Z,2.40
2019-03-11T19:29:51.999Z,2.00
2019-03-11T19:32:24.155Z,3.00
2019-03-11T19:34:56.383Z,3.00
2019-03-11T19:37:27.659Z,2.60
2019-03-11T19:39:59.058Z,2.75
2019-03-11T19:42:30.013Z,3.00
2019-03-11T19:45:06.651Z,3.00
2019-03-11T19:47:42.080Z,4.20
2019-03-11T19:50:15.157Z,3.00
2019-03-11T19:52:57.878Z,5.00
2019-03-11T19:55:21.971Z,5.60
2019-03-11T19:57:54.153Z,5.00
2019-03-11T20:00:32.548Z,7.00
2019-03-11T20:10:00.972Z,10.00
2019-03-11T20:12:36.132Z,11.00
2019-03-11T20:15:07.231Z,11.80
2019-03-11T20:17:39.547Z,10.00
2019-03-11T20:20:11.117Z,16.00
2019-03-11T20:22:42.164Z,11.40
2019-03-11T20:25:15.334Z,9.00
2019-03-11T20:27:46.338Z,11.00
2019-03-11T20:30:19.012Z,12.40
2019-03-11T21:45:16.025Z,13.00
2019-03-11T21:47:47.092Z,11.00
2019-03-11T21:50:19.482Z,14.40
2019-03-11T21:52:50.114Z,13.00
2019-03-11T21:55:20.966Z,14.00
2019-03-11T21:57:51.904Z,14.00
2019-03-11T22:00:33.956Z,13.00
2019-03-11T22:02:56.073Z,12.80
2019-03-11T22:05:26.732Z,14.20
2019-03-11T22:07:57.777Z,14.00
2019-03-11T22:10:28.627Z,14.00
2019-03-11T22:12:59.596Z,9.20
2019-03-11T22:15:30.327Z,13.00
2019-03-11T22:18:01.037Z,12.20
2019-03-11T22:20:31.801Z,11.00
2019-03-11T22:23:02.586Z,10.00
2019-03-11T22:25:33.520Z,11.00
2019-03-11T22:28:04.273Z,12.40
2019-03-11T22:30:36.084Z,11.00
2019-03-11T22:33:06.739Z,14.00
2019-03-11T22:35:37.447Z,11.00
2019-03-11T22:38:08.245Z,11.00
2019-03-11T22:40:39.036Z,12.80
2019-03-11T22:43:09.679Z,13.00
2019-03-11T22:45:40.650Z,9.60
2019-03-11T22:48:11.342Z,14.00
2019-03-11T22:50:42.024Z,16.00
2019-03-11T22:53:12.633Z,10.80
2019-03-11T22:55:43.341Z,13.60
2019-03-11T22:58:13.984Z,10.00
2019-03-11T23:00:58.836Z,14.00
2019-03-11T23:03:31.295Z,9.00
2019-03-11T23:06:02.212Z,11.00
2019-03-11T23:08:32.895Z,10.00
2019-03-11T23:11:03.808Z,10.00
2019-03-11T23:13:34.565Z,10.60
2019-03-11T23:16:05.321Z,14.00
2019-03-11T23:18:36.220Z,14.00
2019-03-11T23:21:07.075Z,13.40
2019-03-11T23:23:37.810Z,13.40
2019-03-11T23:26:08.689Z,11.80
2019-03-11T23:28:39.580Z,12.60
2019-03-11T23:31:10.259Z,11.00
2019-03-11T23:33:41.071Z,11.00
2019-03-11T23:36:11.854Z,19.20
2019-03-11T23:38:42.713Z,10.50
2019-03-11T23:41:13.600Z,16.75
2019-03-11T23:43:44.217Z,10.80
2019-03-11T23:46:14.939Z,17.00
2019-03-11T23:48:45.666Z,11.00
2019-03-11T23:51:16.407Z,13.00
2019-03-11T23:53:46.997Z,15.00
2019-03-11T23:56:17.705Z,14.00
2019-03-11T23:58:48.386Z,14.20
